Time;durP1;ratioP1;P1;durP2;ratioP2;P2;SDS_P1;SDS_P2;PMS_P1;PMS_P2;Temp;Humidity;BMP_temperature;BMP_pressure;BME280_temperature;BME280_humidity;BME280_pressure;Samples;Min_cycle;Max_cycle;Signal;HPM_P1;HPM_P2
2021/04/30 00:00:57;;;;;;;;;;;19.00;41.60;;;;;;487383;243;1340;-44
2021/04/30 00:02:58;;;;;;;;;;;18.80;41.90;;;;;;487332;244;1506;-44
2021/04/30 00:05:00;;;;;;;;;;;18.80;42.00;;;;;;487286;243;1098;-44
2021/04/30 00:07:01;;;;;;;;;;;18.70;42.30;;;;;;487163;243;2187;-44
2021/04/30 00:09:02;;;;;;;;;;;18.60;42.50;;;;;;487668;244;1090;-44
2021/04/30 00:11:04;;;;;;;;;;;18.50;42.60;;;;;;487568;244;1274;-44
2021/04/30 00:13:05;;;;;;;;;;;18.50;42.90;;;;;;487469;244;1111;-44
2021/04/30 00:15:06;;;;;;;;;;;18.40;43.00;;;;;;487223;244;1067;-44
2021/04/30 00:17:07;;;;;;;;;;;18.40;43.00;;;;;;487084;242;1457;-44
2021/04/30 00:19:09;;;;;;;;;;;18.30;43.10;;;;;;487472;244;1038;-44
2021/04/30 00:21:10;;;;;;;;;;;18.20;43.10;;;;;;487224;242;1232;-44
2021/04/30 00:23:12;;;;;;;;;;;18.20;43.30;;;;;;487542;243;1087;-44
2021/04/30 00:25:13;;;;;;;;;;;18.20;43.40;;;;;;487599;244;1079;-44
2021/04/30 00:27:14;;;;;;;;;;;18.20;43.40;;;;;;487358;244;2135;-44
2021/04/30 00:29:16;;;;;;;;;;;18.20;43.40;;;;;;487321;243;1320;-44
2021/04/30 00:31:17;;;;;;;;;;;18.10;43.50;;;;;;487391;243;1127;-44
2021/04/30 00:33:18;;;;;;;;;;;18.10;43.50;;;;;;487337;243;1197;-44
2021/04/30 00:35:19;;;;;;;;;;;18.10;43.60;;;;;;487482;244;1051;-44
2021/04/30 00:37:21;;;;;;;;;;;18.10;43.60;;;;;;487277;244;1212;-44
2021/04/30 00:39:22;;;;;;;;;;;18.10;43.70;;;;;;487318;244;1099;-44
2021/04/30 00:41:23;;;;;;;;;;;18.10;43.70;;;;;;487291;244;1290;-44
2021/04/30 00:43:24;;;;;;;;;;;18.00;43.70;;;;;;487276;243;1182;-44
2021/04/30 00:45:26;;;;;;;;;;;18.00;43.80;;;;;;487265;243;1095;-44
2021/04/30 00:47:27;;;;;;;;;;;17.90;43.80;;;;;;487248;244;2198;-44
2021/04/30 00:49:28;;;;;;;;;;;17.90;43.90;;;;;;487524;243;1023;-44
2021/04/30 00:51:30;;;;;;;;;;;17.90;44.00;;;;;;487393;244;1206;-44
2021/04/30 00:53:31;;;;;;;;;;;17.90;44.00;;;;;;487566;244;1096;-44
2021/04/30 00:55:32;;;;;;;;;;;17.90;44.00;;;;;;487768;244;1329;-44
2021/04/30 00:57:33;;;;;;;;;;;17.90;44.00;;;;;;487350;244;1126;-44
2021/04/30 00:59:35;;;;;;;;;;;17.80;44.10;;;;;;487818;244;1158;-44
2021/04/30 01:01:36;;;;;;;;;;;17.80;44.10;;;;;;487635;244;1347;-44
2021/04/30 01:03:37;;;;;;;;;;;17.80;44.10;;;;;;487353;243;1269;-44
2021/04/30 01:05:39;;;;;;;;;;;17.80;44.10;;;;;;487272;243;1087;-44
2021/04/30 01:07:40;;;;;;;;;;;17.80;44.10;;;;;;487181;243;2174;-44
2021/04/30 01:09:41;;;;;;;;;;;17.80;44.10;;;;;;487342;244;1021;-44
2021/04/30 01:11:42;;;;;;;;;;;17.80;44.10;;;;;;487295;242;1247;-44
2021/04/30 01:13:44;;;;;;;;;;;17.80;44.10;;;;;;487390;244;1065;-44
2021/04/30 01:15:45;;;;;;;;;;;17.80;44.20;;;;;;487689;244;1339;-44
2021/04/30 01:17:46;;;;;;;;;;;17.70;44.20;;;;;;487314;243;1164;-44
2021/04/30 01:19:47;;;;;;;;;;;17.70;44.20;;;;;;487620;244;1034;-44
2021/04/30 01:21:49;;;;;;;;;;;17.80;44.20;;;;;;487212;243;1162;-44
2021/04/30 01:23:50;;;;;;;;;;;17.80;44.20;;;;;;487580;244;1286;-44
2021/04/30 01:25:51;;;;;;;;;;;17.70;44.20;;;;;;487272;244;1119;-44
2021/04/30 01:27:53;;;;;;;;;;;17.70;44.20;;;;;;487206;244;2183;-44
2021/04/30 01:29:54;;;;;;;;;;;17.70;44.30;;;;;;487315;243;1078;-44
2021/04/30 01:31:56;;;;;;;;;;;17.70;44.30;;;;;;487086;244;1493;-44
2021/04/30 01:33:57;;;;;;;;;;;17.70;44.30;;;;;;487391;243;1186;-44
2021/04/30 01:35:58;;;;;;;;;;;17.70;44.30;;;;;;487459;244;1292;-44
2021/04/30 01:37:59;;;;;;;;;;;17.60;44.30;;;;;;487193;243;1166;-44
2021/04/30 01:40:01;;;;;;;;;;;17.60;44.30;;;;;;487441;244;1097;-44
2021/04/30 01:42:02;;;;;;;;;;;17.60;44.40;;;;;;487262;244;1213;-44
2021/04/30 01:44:03;;;;;;;;;;;17.60;44.40;;;;;;487608;244;1089;-44
2021/04/30 01:46:06;;;;;;;;;;;17.60;44.40;;;;;;487169;244;1074;-44
2021/04/30 01:48:06;;;;;;;;;;;17.60;44.40;;;;;;487314;243;2424;-44
2021/04/30 01:50:07;;;;;;;;;;;17.60;44.40;;;;;;487353;244;1064;-44
2021/04/30 01:52:08;;;;;;;;;;;17.60;44.40;;;;;;487273;243;1175;-44
2021/04/30 01:54:10;;;;;;;;;;;17.60;44.40;;;;;;487743;243;1091;-44
2021/04/30 01:56:11;;;;;;;;;;;17.60;44.30;;;;;;487228;243;1153;-44
2021/04/30 01:58:12;;;;;;;;;;;17.60;44.30;;;;;;487341;244;1067;-44
2021/04/30 02:00:14;;;;;;;;;;;17.60;44.30;;;;;;487501;243;1111;-44
2021/04/30 02:02:15;;;;;;;;;;;17.50;44.40;;;;;;487171;243;1197;-44
2021/04/30 02:04:16;;;;;;;;;;;17.60;44.40;;;;;;487330;244;1314;-45
2021/04/30 02:06:17;;;;;;;;;;;17.60;44.40;;;;;;487335;244;1237;-44
2021/04/30 02:08:19;;;;;;;;;;;17.60;44.30;;;;;;487644;243;2186;-44
2021/04/30 02:10:20;;;;;;;;;;;17.50;44.40;;;;;;487602;243;1176;-44
2021/04/30 02:12:21;;;;;;;;;;;17.50;44.50;;;;;;487316;244;1189;-44
2021/04/30 02:14:23;;;;;;;;;;;17.50;44.40;;;;;;487332;244;1056;-44
2021/04/30 02:16:24;;;;;;;;;;;17.60;44.30;;;;;;487151;244;1126;-44
2021/04/30 02:18:25;;;;;;;;;;;18.00;43.50;;;;;;487576;244;1563;-44
2021/04/30 02:20:26;;;;;;;;;;;18.40;42.40;;;;;;487253;244;1051;-44
2021/04/30 02:22:28;;;;;;;;;;;18.70;41.80;;;;;;487313;244;1253;-44
2021/04/30 02:24:29;;;;;;;;;;;18.90;41.30;;;;;;487251;244;1137;-45
2021/04/30 02:26:30;;;;;;;;;;;19.10;40.90;;;;;;487448;244;1178;-44
2021/04/30 02:28:32;;;;;;;;;;;19.20;40.60;;;;;;487279;244;2194;-44
2021/04/30 02:30:33;;;;;;;;;;;19.30;40.40;;;;;;487583;244;1236;-44
2021/04/30 02:32:34;;;;;;;;;;;19.50;40.30;;;;;;487399;244;1198;-44
2021/04/30 02:34:35;;;;;;;;;;;19.50;40.10;;;;;;487593;243;1208;-44
2021/04/30 02:36:37;;;;;;;;;;;19.50;39.90;;;;;;487481;244;1077;-44
2021/04/30 02:38:38;;;;;;;;;;;19.60;39.90;;;;;;487303;244;1196;-44
2021/04/30 02:40:39;;;;;;;;;;;19.60;39.70;;;;;;487642;244;1085;-45
2021/04/30 02:42:40;;;;;;;;;;;19.70;39.70;;;;;;487509;244;1208;-44
2021/04/30 02:44:43;;;;;;;;;;;19.70;39.50;;;;;;487569;243;1067;-44
2021/04/30 02:46:43;;;;;;;;;;;19.80;39.50;;;;;;487104;244;1522;-44
2021/04/30 02:48:45;;;;;;;;;;;19.80;39.40;;;;;;487409;244;2187;-44
2021/04/30 02:50:46;;;;;;;;;;;19.90;39.30;;;;;;487199;243;1431;-44
2021/04/30 02:52:47;;;;;;;;;;;19.90;39.20;;;;;;487185;244;1638;-44
2021/04/30 02:54:48;;;;;;;;;;;20.00;39.30;;;;;;487352;244;1179;-45
2021/04/30 02:56:49;;;;;;;;;;;20.00;39.20;;;;;;487071;244;1383;-44
2021/04/30 02:58:55;;;;;;;;;;;20.00;39.10;;;;;;487504;243;1065;-45
2021/04/30 03:00:52;;;;;;;;;;;20.00;39.10;;;;;;487187;243;2291;-44
2021/04/30 03:02:54;;;;;;;;;;;20.10;39.10;;;;;;487310;243;1113;-44
2021/04/30 03:04:55;;;;;;;;;;;20.10;39.00;;;;;;487561;243;1191;-44
2021/04/30 03:06:56;;;;;;;;;;;20.10;39.00;;;;;;487264;244;1200;-44
2021/04/30 03:08:59;;;;;;;;;;;20.20;38.90;;;;;;487550;244;2231;-44
2021/04/30 03:10:59;;;;;;;;;;;20.20;38.90;;;;;;487665;244;2381;-44
2021/04/30 03:13:00;;;;;;;;;;;20.20;38.90;;;;;;487289;244;1230;-45
2021/04/30 03:15:01;;;;;;;;;;;20.20;38.80;;;;;;487301;244;1107;-44
2021/04/30 03:17:03;;;;;;;;;;;20.20;38.70;;;;;;487188;244;1321;-44
2021/04/30 03:19:04;;;;;;;;;;;20.30;38.70;;;;;;487577;243;1074;-45
2021/04/30 03:21:05;;;;;;;;;;;20.30;38.70;;;;;;487117;244;1230;-44
2021/04/30 03:23:06;;;;;;;;;;;20.30;38.70;;;;;;487225;243;1276;-44
2021/04/30 03:25:08;;;;;;;;;;;20.30;38.60;;;;;;487088;244;1102;-44
2021/04/30 03:27:09;;;;;;;;;;;20.40;38.70;;;;;;486852;244;1337;-44
2021/04/30 03:29:10;;;;;;;;;;;20.40;38.60;;;;;;487254;244;2139;-44
2021/04/30 03:31:12;;;;;;;;;;;20.40;38.60;;;;;;487067;243;1489;-44
2021/04/30 03:33:13;;;;;;;;;;;20.40;38.60;;;;;;486832;244;1348;-44
2021/04/30 03:35:18;;;;;;;;;;;20.40;38.60;;;;;;486952;244;1153;-45
2021/04/30 03:37:17;;;;;;;;;;;20.40;38.50;;;;;;486723;243;2009;-44
2021/04/30 03:39:18;;;;;;;;;;;20.50;38.50;;;;;;486843;244;1097;-44
2021/04/30 03:41:20;;;;;;;;;;;20.50;38.50;;;;;;486826;244;1424;-45
2021/04/30 03:43:21;;;;;;;;;;;20.50;38.50;;;;;;486975;244;1081;-44
2021/04/30 03:45:22;;;;;;;;;;;20.50;38.40;;;;;;486965;243;1135;-45
2021/04/30 03:47:24;;;;;;;;;;;20.60;38.50;;;;;;486879;244;1383;-44
2021/04/30 03:49:25;;;;;;;;;;;20.60;38.40;;;;;;486803;244;2163;-44
2021/04/30 03:51:26;;;;;;;;;;;20.60;38.40;;;;;;486716;244;1458;-44
2021/04/30 03:53:27;;;;;;;;;;;20.60;38.40;;;;;;487011;244;1244;-44
2021/04/30 03:55:29;;;;;;;;;;;20.60;38.40;;;;;;487128;244;1138;-44
2021/04/30 03:57:30;;;;;;;;;;;20.60;38.40;;;;;;487204;244;1242;-44
2021/04/30 03:59:31;;;;;;;;;;;20.60;38.30;;;;;;487510;244;1099;-45
2021/04/30 04:01:33;;;;;;;;;;;20.60;38.30;;;;;;487294;244;1412;-45
2021/04/30 04:03:34;;;;;;;;;;;20.60;38.20;;;;;;487359;244;1064;-44
2021/04/30 04:05:35;;;;;;;;;;;20.70;38.20;;;;;;487184;244;1258;-44
2021/04/30 04:07:36;;;;;;;;;;;20.70;38.30;;;;;;487288;244;1287;-45
2021/04/30 04:09:38;;;;;;;;;;;20.70;38.20;;;;;;487497;244;2202;-44
2021/04/30 04:11:39;;;;;;;;;;;20.70;38.20;;;;;;487373;244;1068;-44
2021/04/30 04:13:40;;;;;;;;;;;20.70;38.20;;;;;;487417;244;1078;-44
2021/04/30 04:15:41;;;;;;;;;;;20.80;38.30;;;;;;487362;244;980;-44
2021/04/30 04:17:43;;;;;;;;;;;20.80;38.30;;;;;;487263;244;1236;-44
2021/04/30 04:19:48;;;;;;;;;;;20.70;38.20;;;;;;487734;244;1060;-45
2021/04/30 04:21:46;;;;;;;;;;;20.80;38.30;;;;;;487029;245;2145;-45
2021/04/30 04:23:47;;;;;;;;;;;20.80;38.30;;;;;;487425;243;1109;-45
2021/04/30 04:25:49;;;;;;;;;;;20.80;38.20;;;;;;487238;244;1252;-44
2021/04/30 04:27:50;;;;;;;;;;;20.80;38.30;;;;;;487598;243;1217;-45
2021/04/30 04:29:51;;;;;;;;;;;20.90;38.20;;;;;;487306;244;2127;-44
2021/04/30 04:31:52;;;;;;;;;;;20.70;38.20;;;;;;487199;243;1126;-44
2021/04/30 04:33:54;;;;;;;;;;;20.20;39.20;;;;;;487189;244;1052;-44
2021/04/30 04:35:55;;;;;;;;;;;19.80;40.20;;;;;;487393;243;1415;-44
2021/04/30 04:37:56;;;;;;;;;;;19.40;41.00;;;;;;487155;244;1296;-44
2021/04/30 04:39:58;;;;;;;;;;;19.20;41.60;;;;;;487184;244;1078;-44
2021/04/30 04:41:59;;;;;;;;;;;19.00;42.10;;;;;;487380;244;1461;-44
2021/04/30 04:44:00;;;;;;;;;;;18.80;42.40;;;;;;487485;243;1133;-44
2021/04/30 04:46:01;;;;;;;;;;;18.70;42.70;;;;;;487004;243;1118;-44
2021/04/30 04:48:03;;;;;;;;;;;18.60;42.80;;;;;;487122;243;1104;-44
2021/04/30 04:50:04;;;;;;;;;;;18.60;43.00;;;;;;487106;244;2151;-44
2021/04/30 04:52:05;;;;;;;;;;;18.50;43.10;;;;;;487021;243;1187;-44
2021/04/30 04:54:06;;;;;;;;;;;18.50;43.30;;;;;;487146;243;1084;-44
2021/04/30 04:56:08;;;;;;;;;;;18.40;43.40;;;;;;487001;244;1282;-44
2021/04/30 04:58:09;;;;;;;;;;;18.40;43.40;;;;;;487164;243;1071;-44
2021/04/30 05:00:10;;;;;;;;;;;18.40;43.40;;;;;;487093;244;1099;-44
2021/04/30 05:02:12;;;;;;;;;;;18.30;43.50;;;;;;487116;243;1091;-44
2021/04/30 05:04:13;;;;;;;;;;;18.20;43.60;;;;;;487177;243;1096;-44
2021/04/30 05:06:14;;;;;;;;;;;18.20;43.80;;;;;;487076;244;1199;-44
2021/04/30 05:08:15;;;;;;;;;;;18.20;43.90;;;;;;487343;244;1038;-44
2021/04/30 05:10:19;;;;;;;;;;;18.10;43.90;;;;;;487142;244;2143;-44
2021/04/30 05:12:18;;;;;;;;;;;18.10;44.00;;;;;;487052;244;1825;-44
2021/04/30 05:14:19;;;;;;;;;;;18.10;44.10;;;;;;487179;244;1248;-44
2021/04/30 05:16:20;;;;;;;;;;;18.10;44.20;;;;;;487141;243;1100;-44
2021/04/30 05:18:22;;;;;;;;;;;18.10;44.10;;;;;;487061;243;1107;-44
2021/04/30 05:20:23;;;;;;;;;;;18.00;44.10;;;;;;487030;244;1335;-44
2021/04/30 05:22:24;;;;;;;;;;;18.00;44.20;;;;;;486786;244;1257;-44
2021/04/30 05:24:26;;;;;;;;;;;18.00;44.10;;;;;;487178;244;1134;-44
2021/04/30 05:26:27;;;;;;;;;;;18.00;44.20;;;;;;487048;242;2072;-44
2021/04/30 05:28:28;;;;;;;;;;;18.00;44.20;;;;;;487018;244;1057;-44
2021/04/30 05:30:29;;;;;;;;;;;17.90;44.30;;;;;;487260;244;2182;-44
2021/04/30 05:32:31;;;;;;;;;;;18.00;44.20;;;;;;486845;244;1256;-44
2021/04/30 05:34:32;;;;;;;;;;;17.90;44.20;;;;;;487302;244;1058;-44
2021/04/30 05:36:33;;;;;;;;;;;17.90;44.40;;;;;;487185;243;1116;-44
2021/04/30 05:38:35;;;;;;;;;;;17.90;44.30;;;;;;487092;244;1053;-44
2021/04/30 05:40:36;;;;;;;;;;;17.90;44.40;;;;;;486973;243;1172;-44
2021/04/30 05:42:37;;;;;;;;;;;17.90;44.40;;;;;;486997;244;1531;-44
2021/04/30 05:44:38;;;;;;;;;;;17.90;44.40;;;;;;486872;244;1459;-44
2021/04/30 05:46:40;;;;;;;;;;;17.90;44.40;;;;;;486795;244;1520;-44
2021/04/30 05:48:41;;;;;;;;;;;17.80;44.40;;;;;;486861;244;1123;-44
2021/04/30 05:50:43;;;;;;;;;;;17.80;44.40;;;;;;486821;243;2190;-44
2021/04/30 05:52:44;;;;;;;;;;;17.80;44.40;;;;;;486843;243;1220;-44
2021/04/30 05:54:45;;;;;;;;;;;17.80;44.40;;;;;;486895;243;1163;-44
2021/04/30 05:56:46;;;;;;;;;;;17.90;44.40;;;;;;486864;243;1216;-44
2021/04/30 05:58:48;;;;;;;;;;;17.90;44.40;;;;;;486895;243;1338;-44
2021/04/30 06:00:49;;;;;;;;;;;17.80;44.40;;;;;;486955;243;1159;-44
2021/04/30 06:02:51;;;;;;;;;;;17.80;44.40;;;;;;486918;243;1074;-44
2021/04/30 06:04:53;;;;;;;;;;;17.80;44.40;;;;;;487027;244;1212;-44
2021/04/30 06:06:53;;;;;;;;;;;17.70;44.50;;;;;;486793;244;1454;-44
2021/04/30 06:08:54;;;;;;;;;;;17.70;44.60;;;;;;486870;244;1088;-44
2021/04/30 06:10:56;;;;;;;;;;;17.70;44.50;;;;;;486827;244;2199;-44
2021/04/30 06:12:57;;;;;;;;;;;17.70;44.50;;;;;;486839;244;1373;-44
2021/04/30 06:14:58;;;;;;;;;;;17.70;44.50;;;;;;486822;244;1134;-44
2021/04/30 06:17:00;;;;;;;;;;;17.70;44.60;;;;;;486710;244;1171;-44
2021/04/30 06:19:02;;;;;;;;;;;17.70;44.70;;;;;;486649;243;1091;-44
2021/04/30 06:21:02;;;;;;;;;;;17.60;44.70;;;;;;486554;242;1569;-44
2021/04/30 06:23:03;;;;;;;;;;;17.60;44.70;;;;;;486717;244;1655;-44
2021/04/30 06:25:05;;;;;;;;;;;17.60;44.70;;;;;;486710;244;1191;-44
2021/04/30 06:27:06;;;;;;;;;;;17.70;44.70;;;;;;486694;244;1123;-44
2021/04/30 06:29:08;;;;;;;;;;;17.60;44.70;;;;;;486611;243;1086;-44
2021/04/30 06:31:09;;;;;;;;;;;17.60;44.70;;;;;;486428;244;2230;-44
2021/04/30 06:33:11;;;;;;;;;;;17.60;44.70;;;;;;486512;243;1307;-44
2021/04/30 06:35:12;;;;;;;;;;;17.60;44.70;;;;;;486794;244;1090;-44
2021/04/30 06:37:13;;;;;;;;;;;17.60;44.70;;;;;;487031;243;1149;-44
2021/04/30 06:39:15;;;;;;;;;;;17.60;44.70;;;;;;486791;243;1145;-44
2021/04/30 06:41:16;;;;;;;;;;;17.60;44.70;;;;;;486587;243;1205;-44
2021/04/30 06:43:17;;;;;;;;;;;17.60;44.70;;;;;;486722;244;1105;-44
2021/04/30 06:45:18;;;;;;;;;;;17.60;44.60;;;;;;486839;244;1066;-44
2021/04/30 06:47:20;;;;;;;;;;;17.60;44.50;;;;;;486820;243;1166;-44
2021/04/30 06:49:21;;;;;;;;;;;17.60;44.70;;;;;;486772;243;2194;-44
2021/04/30 06:51:22;;;;;;;;;;;17.60;44.70;;;;;;486759;244;1158;-44
2021/04/30 06:53:24;;;;;;;;;;;17.60;44.60;;;;;;486828;244;1399;-44
2021/04/30 06:55:25;;;;;;;;;;;17.90;44.00;;;;;;486689;243;1283;-44
2021/04/30 06:57:27;;;;;;;;;;;18.30;43.00;;;;;;486711;244;1697;-44
2021/04/30 06:59:28;;;;;;;;;;;18.60;42.20;;;;;;486648;244;1176;-44
2021/04/30 07:01:29;;;;;;;;;;;18.90;41.70;;;;;;486598;244;1202;-44
2021/04/30 07:03:30;;;;;;;;;;;19.00;41.30;;;;;;486812;243;1071;-44
2021/04/30 07:05:32;;;;;;;;;;;19.20;41.00;;;;;;486787;244;1338;-44
2021/04/30 07:07:34;;;;;;;;;;;19.30;40.70;;;;;;486666;244;1368;-44
2021/04/30 07:09:34;;;;;;;;;;;19.40;40.50;;;;;;486545;244;2143;-44
2021/04/30 07:11:36;;;;;;;;;;;19.50;40.40;;;;;;486629;244;1131;-44
2021/04/30 07:13:37;;;;;;;;;;;19.50;40.30;;;;;;486712;244;1127;-44
2021/04/30 07:15:38;;;;;;;;;;;19.60;40.20;;;;;;486641;243;1298;-44
2021/04/30 07:17:39;;;;;;;;;;;19.60;40.10;;;;;;486689;244;1199;-44
2021/04/30 07:19:41;;;;;;;;;;;19.70;40.00;;;;;;486850;244;1110;-44
2021/04/30 07:21:42;;;;;;;;;;;19.70;39.90;;;;;;486655;243;1171;-44
2021/04/30 07:23:43;;;;;;;;;;;19.80;39.80;;;;;;486679;243;1278;-44
2021/04/30 07:25:45;;;;;;;;;;;19.80;39.70;;;;;;486603;243;1234;-44
2021/04/30 07:27:46;;;;;;;;;;;19.80;39.70;;;;;;486528;243;1239;-44
2021/04/30 07:29:48;;;;;;;;;;;19.90;39.70;;;;;;486732;243;2190;-44
2021/04/30 07:31:49;;;;;;;;;;;19.90;39.60;;;;;;486664;244;1370;-44
2021/04/30 07:33:50;;;;;;;;;;;19.90;39.50;;;;;;486648;244;1063;-44
2021/04/30 07:35:51;;;;;;;;;;;20.00;39.40;;;;;;486653;244;1302;-45
2021/04/30 07:37:52;;;;;;;;;;;20.00;39.40;;;;;;486536;244;1204;-45
2021/04/30 07:39:54;;;;;;;;;;;20.00;39.30;;;;;;486414;244;1120;-44
2021/04/30 07:41:55;;;;;;;;;;;20.10;39.30;;;;;;486290;243;1301;-44
2021/04/30 07:43:56;;;;;;;;;;;20.10;39.30;;;;;;486563;244;1126;-44
2021/04/30 07:45:59;;;;;;;;;;;20.10;39.20;;;;;;486516;243;1174;-44
2021/04/30 07:48:00;;;;;;;;;;;20.20;39.20;;;;;;486560;244;1159;-45
2021/04/30 07:50:01;;;;;;;;;;;20.20;39.20;;;;;;486475;244;2135;-44
2021/04/30 07:52:02;;;;;;;;;;;20.20;39.10;;;;;;486788;244;1206;-44
2021/04/30 07:54:04;;;;;;;;;;;20.20;39.10;;;;;;486656;244;1125;-45
2021/04/30 07:56:05;;;;;;;;;;;20.20;39.00;;;;;;486570;243;1386;-44
2021/04/30 07:58:06;;;;;;;;;;;20.30;39.10;;;;;;486582;244;1139;-44
2021/04/30 08:00:07;;;;;;;;;;;20.30;39.00;;;;;;486479;244;1108;-45
2021/04/30 08:02:09;;;;;;;;;;;20.30;39.00;;;;;;486504;244;1319;-44
2021/04/30 08:04:10;;;;;;;;;;;20.30;38.90;;;;;;486427;244;1133;-45
2021/04/30 08:06:11;;;;;;;;;;;20.30;38.90;;;;;;486373;244;1235;-44
2021/04/30 08:08:13;;;;;;;;;;;20.30;38.80;;;;;;487098;244;1150;-45
2021/04/30 08:10:14;;;;;;;;;;;20.40;38.80;;;;;;486508;243;2234;-44
2021/04/30 08:12:16;;;;;;;;;;;20.40;38.80;;;;;;486502;244;1332;-44
2021/04/30 08:14:17;;;;;;;;;;;20.40;38.80;;;;;;486471;244;1615;-44
2021/04/30 08:16:18;;;;;;;;;;;20.40;38.80;;;;;;486356;244;1239;-45
2021/04/30 08:18:19;;;;;;;;;;;20.50;38.80;;;;;;486530;244;1360;-44
2021/04/30 08:20:21;;;;;;;;;;;20.40;38.70;;;;;;486502;244;1355;-44
2021/04/30 08:22:22;;;;;;;;;;;20.50;38.80;;;;;;486408;244;1221;-45
2021/04/30 08:24:23;;;;;;;;;;;20.50;38.70;;;;;;486642;244;1223;-45
2021/04/30 08:26:25;;;;;;;;;;;20.50;38.70;;;;;;486616;243;1221;-44
2021/04/30 08:28:26;;;;;;;;;;;20.50;38.70;;;;;;486525;243;1260;-44
2021/04/30 08:30:27;;;;;;;;;;;20.60;38.70;;;;;;486580;244;2147;-44
2021/04/30 08:32:29;;;;;;;;;;;20.50;38.60;;;;;;486636;244;1089;-44
2021/04/30 08:34:30;;;;;;;;;;;20.60;38.70;;;;;;486672;244;1133;-44
2021/04/30 08:36:31;;;;;;;;;;;20.60;38.60;;;;;;486679;244;1282;-44
2021/04/30 08:38:32;;;;;;;;;;;20.60;38.60;;;;;;486609;236;1324;-45
2021/04/30 08:40:34;;;;;;;;;;;20.60;38.60;;;;;;486624;244;1115;-44
2021/04/30 08:42:35;;;;;;;;;;;20.60;38.50;;;;;;487082;244;1183;-44
2021/04/30 08:44:36;;;;;;;;;;;20.70;38.50;;;;;;486618;243;1113;-45
2021/04/30 08:46:37;;;;;;;;;;;20.70;38.50;;;;;;486854;243;1312;-44
2021/04/30 08:48:39;;;;;;;;;;;20.60;38.50;;;;;;486766;244;1087;-45
2021/04/30 08:50:40;;;;;;;;;;;20.70;38.50;;;;;;486609;244;2150;-44
2021/04/30 08:52:41;;;;;;;;;;;20.70;38.50;;;;;;486685;243;1474;-45
2021/04/30 08:54:43;;;;;;;;;;;20.70;38.50;;;;;;486547;244;1116;-44
2021/04/30 08:56:47;;;;;;;;;;;20.70;38.50;;;;;;486501;243;1077;-44
2021/04/30 08:58:46;;;;;;;;;;;20.70;38.50;;;;;;486476;244;2060;-45
2021/04/30 09:00:47;;;;;;;;;;;20.70;38.40;;;;;;486618;243;1219;-45
2021/04/30 09:02:48;;;;;;;;;;;20.70;38.40;;;;;;486569;244;1291;-45
2021/04/30 09:04:50;;;;;;;;;;;20.80;38.40;;;;;;486730;244;1118;-44
2021/04/30 09:06:51;;;;;;;;;;;20.80;38.40;;;;;;486582;244;1204;-44
2021/04/30 09:08:52;;;;;;;;;;;20.80;38.50;;;;;;486799;243;1191;-44
2021/04/30 09:10:56;;;;;;;;;;;20.80;38.30;;;;;;486635;244;2191;-44
2021/04/30 09:12:55;;;;;;;;;;;20.60;38.70;;;;;;486626;243;2224;-44
2021/04/30 09:14:56;;;;;;;;;;;20.10;39.60;;;;;;486609;244;1106;-44
2021/04/30 09:16:57;;;;;;;;;;;19.70;40.60;;;;;;486437;244;1233;-44
2021/04/30 09:18:59;;;;;;;;;;;19.30;41.30;;;;;;486459;244;1124;-44
2021/04/30 09:21:00;;;;;;;;;;;19.10;42.00;;;;;;486352;243;1339;-44
2021/04/30 09:23:01;;;;;;;;;;;18.90;42.30;;;;;;486468;244;1131;-44
2021/04/30 09:25:03;;;;;;;;;;;18.70;42.60;;;;;;486354;243;1331;-44
2021/04/30 09:27:04;;;;;;;;;;;18.70;42.90;;;;;;486554;244;1160;-45
2021/04/30 09:29:05;;;;;;;;;;;18.60;43.00;;;;;;486285;244;1072;-44
2021/04/30 09:31:06;;;;;;;;;;;18.60;43.10;;;;;;486176;241;2186;-44
2021/04/30 09:33:08;;;;;;;;;;;18.50;43.30;;;;;;487049;244;1050;-44
2021/04/30 09:35:09;;;;;;;;;;;18.50;43.40;;;;;;486468;244;1143;-44
2021/04/30 09:37:11;;;;;;;;;;;18.30;43.50;;;;;;486588;244;1126;-44
2021/04/30 09:39:12;;;;;;;;;;;18.40;43.70;;;;;;486302;244;1611;-44
2021/04/30 09:41:14;;;;;;;;;;;18.30;43.70;;;;;;486168;244;1336;-44
2021/04/30 09:43:15;;;;;;;;;;;18.20;43.80;;;;;;486580;244;1380;-44
2021/04/30 09:45:16;;;;;;;;;;;18.20;43.90;;;;;;486214;244;1232;-44
2021/04/30 09:47:17;;;;;;;;;;;18.20;43.80;;;;;;486506;243;1240;-44
2021/04/30 09:49:19;;;;;;;;;;;18.20;43.90;;;;;;486584;244;1099;-44
2021/04/30 09:51:20;;;;;;;;;;;18.20;43.90;;;;;;486499;241;2155;-44
2021/04/30 09:53:21;;;;;;;;;;;18.10;44.00;;;;;;486554;244;1087;-44
2021/04/30 09:55:23;;;;;;;;;;;18.10;44.00;;;;;;486541;244;1143;-44
2021/04/30 09:57:24;;;;;;;;;;;18.10;44.10;;;;;;486795;244;1111;-44
2021/04/30 09:59:25;;;;;;;;;;;18.10;44.10;;;;;;486826;244;1243;-44
2021/04/30 10:01:26;;;;;;;;;;;18.10;44.20;;;;;;486668;244;1214;-44
2021/04/30 10:03:28;;;;;;;;;;;18.10;44.00;;;;;;486695;244;1118;-44
2021/04/30 10:05:29;;;;;;;;;;;18.10;44.10;;;;;;486549;244;1295;-44
2021/04/30 10:07:30;;;;;;;;;;;18.00;44.20;;;;;;486818;243;1568;-44
2021/04/30 10:09:32;;;;;;;;;;;18.00;44.20;;;;;;486853;243;1121;-44
2021/04/30 10:11:33;;;;;;;;;;;18.00;44.30;;;;;;486610;244;2214;-44
2021/04/30 10:13:34;;;;;;;;;;;18.00;44.30;;;;;;487317;244;1259;-44
2021/04/30 10:15:35;;;;;;;;;;;18.00;44.40;;;;;;487336;244;1181;-44
2021/04/30 10:17:37;;;;;;;;;;;18.00;44.40;;;;;;487158;244;1041;-44
2021/04/30 10:19:38;;;;;;;;;;;17.90;44.40;;;;;;486882;244;859;-44
2021/04/30 10:21:40;;;;;;;;;;;17.90;44.40;;;;;;486817;244;1140;-44
2021/04/30 10:23:41;;;;;;;;;;;17.90;44.40;;;;;;487008;244;1049;-44
2021/04/30 10:25:42;;;;;;;;;;;17.90;44.40;;;;;;486521;244;1314;-44
2021/04/30 10:27:43;;;;;;;;;;;17.90;44.40;;;;;;486551;243;1148;-44
2021/04/30 10:29:45;;;;;;;;;;;17.90;44.40;;;;;;486459;244;1455;-44
2021/04/30 10:31:46;;;;;;;;;;;17.80;44.50;;;;;;486447;244;2206;-45
2021/04/30 10:33:47;;;;;;;;;;;17.80;44.50;;;;;;486496;244;1151;-44
2021/04/30 10:35:48;;;;;;;;;;;17.80;44.60;;;;;;486420;244;1286;-44
2021/04/30 10:37:50;;;;;;;;;;;17.80;44.60;;;;;;486355;244;1125;-44
2021/04/30 10:39:51;;;;;;;;;;;17.80;44.50;;;;;;486435;244;1098;-44
2021/04/30 10:41:53;;;;;;;;;;;17.80;44.50;;;;;;486427;244;1241;-44
2021/04/30 10:43:54;;;;;;;;;;;17.90;44.40;;;;;;486513;243;1078;-44
2021/04/30 10:45:55;;;;;;;;;;;17.80;44.40;;;;;;486443;243;1093;-44
2021/04/30 10:47:57;;;;;;;;;;;17.80;44.40;;;;;;486596;244;1109;-44
2021/04/30 10:49:58;;;;;;;;;;;17.80;44.50;;;;;;486463;244;1146;-44
2021/04/30 10:51:59;;;;;;;;;;;17.80;44.60;;;;;;486475;243;2198;-44
2021/04/30 10:54:00;;;;;;;;;;;17.80;44.40;;;;;;486559;244;1167;-44
2021/04/30 10:56:02;;;;;;;;;;;17.80;44.60;;;;;;486497;236;1274;-43
2021/04/30 10:58:03;;;;;;;;;;;17.70;44.60;;;;;;486787;243;1183;-44
2021/04/30 11:00:04;;;;;;;;;;;17.70;44.70;;;;;;486738;244;1239;-44
2021/04/30 11:02:06;;;;;;;;;;;17.70;44.50;;;;;;486394;244;1221;-44
2021/04/30 11:04:07;;;;;;;;;;;17.70;44.50;;;;;;486637;244;1102;-44
2021/04/30 11:06:08;;;;;;;;;;;17.70;44.60;;;;;;486673;244;1397;-44
2021/04/30 11:08:09;;;;;;;;;;;17.70;44.70;;;;;;486684;242;1117;-44
2021/04/30 11:10:11;;;;;;;;;;;17.70;44.70;;;;;;486747;243;1120;-44
2021/04/30 11:12:12;;;;;;;;;;;17.70;44.70;;;;;;486607;244;2245;-44
2021/04/30 11:14:13;;;;;;;;;;;17.70;44.70;;;;;;486691;243;1054;-43
2021/04/30 11:16:14;;;;;;;;;;;17.70;44.70;;;;;;486674;244;1286;-44
2021/04/30 11:18:18;;;;;;;;;;;17.70;44.70;;;;;;486726;243;1222;-43
2021/04/30 11:20:18;;;;;;;;;;;17.60;44.70;;;;;;486642;243;1320;-44
2021/04/30 11:22:18;;;;;;;;;;;17.60;44.70;;;;;;486659;244;1270;-44
2021/04/30 11:24:20;;;;;;;;;;;17.70;44.80;;;;;;486710;244;1167;-44
2021/04/30 11:26:21;;;;;;;;;;;17.60;44.60;;;;;;486604;244;1280;-44
2021/04/30 11:28:22;;;;;;;;;;;17.60;44.70;;;;;;486599;244;1096;-44
2021/04/30 11:30:24;;;;;;;;;;;17.60;44.80;;;;;;486615;244;1301;-44
2021/04/30 11:32:25;;;;;;;;;;;17.60;44.80;;;;;;486628;244;2194;-44
2021/04/30 11:34:26;;;;;;;;;;;17.60;44.80;;;;;;486630;243;1186;-44
2021/04/30 11:36:27;;;;;;;;;;;17.60;44.80;;;;;;486539;241;1230;-44
2021/04/30 11:38:29;;;;;;;;;;;17.60;44.70;;;;;;486619;243;1175;-44
2021/04/30 11:40:30;;;;;;;;;;;17.60;44.70;;;;;;486517;244;1117;-43
2021/04/30 11:42:31;;;;;;;;;;;17.60;44.70;;;;;;486589;244;1294;-44
2021/04/30 11:44:33;;;;;;;;;;;17.60;44.80;;;;;;486552;244;1103;-44
2021/04/30 11:46:34;;;;;;;;;;;17.50;44.80;;;;;;486668;240;1361;-44
2021/04/30 11:48:35;;;;;;;;;;;17.60;44.60;;;;;;486925;244;1214;-44
2021/04/30 11:50:36;;;;;;;;;;;18.00;44.00;;;;;;486728;243;1139;-44
2021/04/30 11:52:41;;;;;;;;;;;18.40;42.90;;;;;;486739;243;2199;-45
2021/04/30 11:54:40;;;;;;;;;;;18.70;42.20;;;;;;486597;244;1397;-44
2021/04/30 11:56:45;;;;;;;;;;;18.90;41.70;;;;;;486698;244;1204;-44